M I D A S
Marine Information and Data Acquisition System
Tripno 731 of the Zeeleeuw from 2004-06-08 06:06:44 to 2004-06-08 15:33:51
Back to CruiseResearch ActivitiesStationsMapUnderway DataData graphs

EquipmentUnitsComment
TimeDGPSUTC
LatitudeDGPSDM.mWGS84
LongitudeDGPSDM.mWGS84
TemperatureSBE03/SBE38deg celciusITS90
ConductivitySBE21S/mITS90
SalinitySBE21 Practical Salinity Units
ChlorophylAChelsea fluorimeterg/lCalibrated in Aceton
Missing or incorrect values are displayed as -999
Sea surface data collected by the RV Zeeleeuw from 2004-06-08 06:06:44 to 2004-06-08 15:33:51
Time Latitude Longitude Temperature Conductivity Salinity ChlorophylA
2004-06-08 06:07:46 51°13.599 2°56.098 21.778 0.028144 0.128576 19.714067
2004-06-08 06:08:45 51°13.605 2°56.062 21.764463 0.028144 0.128591 19.680358
2004-06-08 06:09:47 51°13.639 2°55.941 21.807827 0.028144 0.128604 19.612939
2004-06-08 06:10:46 51°13.675 2°55.808 21.788812 0.028144 0.128617 19.57923
2004-06-08 06:11:45 51°13.694 2°55.76 21.921969 0.02804 0.128165 19.511811
2004-06-08 06:12:47 51°13.693 2°55.76 21.88167 0.02804 0.128184 19.444392
2004-06-08 06:13:45 51°13.743 2°55.719 21.815597 0.028144 0.128653 19.410683
2004-06-08 06:14:46 51°13.846 2°55.633 21.776382 0.02804 0.128196 19.343264
2004-06-08 06:15:46 51°13.971 2°55.56 21.796624 0.02804 0.128203 19.242136
2004-06-08 06:16:46 51°14.103 2°55.47 21.82526 0.02804 0.128211 19.174717
2004-06-08 06:17:53 51°14.251 2°55.297 21.80976 0.02804 0.128217 19.107298
2004-06-08 06:18:54 51°14.374 2°55.05 21.800016 0.02804 0.128218 19.073589
2004-06-08 06:19:52 51°14.502 2°54.775 21.74291 0.02804 0.128218 19.00617
2004-06-08 06:21:09 51°14.702 2°54.452 21.770581 0.02804 0.128227 18.938751
2004-06-08 06:22:07 51°14.842 2°54.197 21.783367 0.02804 0.128228 18.905042
2004-06-08 06:23:09 51°14.964 2°53.894 21.820724 0.02804 0.128236 18.905042
2004-06-08 06:24:08 51°15.068 2°53.593 21.835394 0.02804 0.128242 18.837623
2004-06-08 06:25:08 51°15.175 2°53.291 21.841821 0.02804 0.128246 18.736494
2004-06-08 06:26:08 51°15.286 2°52.989 21.847892 0.02804 0.128249 18.702785
2004-06-08 06:27:09 51°15.402 2°52.682 21.864408 0.02804 0.128258 18.669076
2004-06-08 06:28:09 51°15.444 2°52.348 17.61095 4.221346 30.607877 14.826204
2004-06-08 06:29:09 51°15.464 2°52.006 17.273281 4.207665 32.02785 10.275435
2004-06-08 06:30:09 51°15.451 2°51.666 17.240493 4.20619 32.117262 9.736084
2004-06-08 06:31:09 51°15.421 2°51.329 17.130016 4.212203 32.259101 10.208016
2004-06-08 06:32:09 51°15.392 2°50.988 17.072813 4.203663 32.258917 11.017042
2004-06-08 06:33:17 51°15.339 2°50.608 17.01704 4.201027 32.285447 11.320426
2004-06-08 06:34:21 51°15.291 2°50.249 17.01176 4.198497 32.300066 11.65752
2004-06-08 06:35:20 51°15.254 2°49.917 17.011675 4.195755 32.285318 11.994614
2004-06-08 06:36:21 51°15.217 2°49.573 17.037522 4.217372 32.456929 12.533965
2004-06-08 06:37:21 51°15.178 2°49.234 16.95767 4.215791 32.469287 13.680084
2004-06-08 06:38:20 51°15.141 2°48.897 16.878911 4.20588 32.440093 14.354272
2004-06-08 06:39:20 51°15.103 2°48.555 16.848009 4.201452 32.452212 14.826204
2004-06-08 06:40:21 51°15.064 2°48.207 16.789044 4.201874 32.497369 15.264426
2004-06-08 06:41:21 51°15.028 2°47.865 16.769463 4.205249 32.557457 15.432973
2004-06-08 06:42:22 51°14.994 2°47.516 16.748095 4.204617 32.572253 15.500392
2004-06-08 06:43:22 51°14.959 2°47.175 16.721334 4.203457 32.580717 16.073452
2004-06-08 06:44:26 51°14.923 2°46.814 16.69244 4.198396 32.559589 15.770067
2004-06-08 06:45:30 51°14.888 2°46.451 16.693628 4.203036 32.61173 15.938614
2004-06-08 06:46:30 51°14.855 2°46.106 16.687432 4.202614 32.617652 16.208289
2004-06-08 06:47:29 51°14.815 2°45.768 16.69244 4.204196 32.631959 16.241999
2004-06-08 06:48:38 51°14.765 2°45.371 16.701648 4.205778 32.636683 16.444255
2004-06-08 06:49:38 51°14.722 2°45.025 16.721164 4.212842 32.68172 16.579093
2004-06-08 06:50:36 51°14.681 2°44.691 16.759034 4.21358 32.677927 16.680221
2004-06-08 06:51:42 51°14.635 2°44.312 16.797519 4.233616 32.811817 16.74764
2004-06-08 06:52:42 51°14.592 2°43.97 16.761408 4.244477 32.895023 16.680221
2004-06-08 06:53:41 51°14.552 2°43.631 16.733507 4.236252 32.859909 16.71393
2004-06-08 06:54:41 51°14.513 2°43.285 16.713189 4.261245 33.08687 16.511674
2004-06-08 06:55:42 51°14.471 2°42.936 16.705297 4.265253 33.144124 16.477965
2004-06-08 06:56:42 51°14.431 2°42.591 16.713358 4.27021 33.192647 16.477965
2004-06-08 06:57:46 51°14.391 2°42.223 16.69244 4.280966 33.281825 16.579093
2004-06-08 06:58:45 51°14.352 2°41.883 16.684419 4.286767 33.339569 16.612802
2004-06-08 06:59:45 51°14.307 2°41.538 16.6457 4.301426 33.473175 16.545383
2004-06-08 07:00:46 51°14.275 2°41.187 16.658949 4.311551 33.61374 16.410546
2004-06-08 07:01:52 51°14.255 2°40.801 16.636697 4.310179 33.583256 16.275708
2004-06-08 07:02:55 51°14.236 2°40.432 16.581886 4.312711 33.628183 16.140871
2004-06-08 07:03:56 51°14.218 2°40.071 16.561863 4.301744 33.586355 16.376836
2004-06-08 07:04:56 51°14.202 2°39.716 16.527925 4.308177 33.635694 16.006033
2004-06-08 07:05:56 51°14.187 2°39.365 16.499077 4.315138 33.720701 15.466683
2004-06-08 07:06:55 51°14.169 2°39.022 16.184239 4.308284 33.758608 15.095879
2004-06-08 07:07:56 51°14.151 2°38.662 15.842556 4.28182 33.885903 14.286853
2004-06-08 07:08:55 51°14.113 2°38.316 15.777127 4.263367 33.861071 13.882341
2004-06-08 07:10:00 51°14.057 2°37.942 15.69437 4.256197 33.875898 13.477828
2004-06-08 07:11:02 51°13.973 2°37.602 15.676713 4.258201 33.922555 13.275571
2004-06-08 07:12:02 51°13.891 2°37.273 15.624187 4.257042 33.951377 13.241862
2004-06-08 07:13:01 51°13.811 2°36.947 15.586977 4.255566 33.979384 13.107024
2004-06-08 07:14:02 51°13.725 2°36.615 15.573217 4.247446 33.930713 13.039606
2004-06-08 07:15:07 51°13.616 2°36.275 15.590125 4.256937 34.005158 12.938477
2004-06-08 07:16:05 51°13.518 2°35.969 15.583785 4.233315 33.789824 12.904768
2004-06-08 07:17:05 51°13.419 2°35.652 15.532094 4.251032 33.981429 12.837349
2004-06-08 07:18:04 51°13.322 2°35.345 15.545042 4.258309 34.072983 12.668802
2004-06-08 07:19:06 51°13.212 2°35.033 15.596119 4.254934 34.004679 12.567674
2004-06-08 07:20:06 51°13.106 2°34.73 15.633497 4.248395 33.911527 12.567674
2004-06-08 07:21:05 51°13.001 2°34.434 15.675679 4.274548 34.106215 12.601383
2004-06-08 07:22:07 51°12.891 2°34.122 15.666805 4.268642 34.032921 12.567674
2004-06-08 07:23:12 51°12.777 2°33.793 15.616729 4.2717 34.089203 12.533965
2004-06-08 07:24:12 51°12.671 2°33.491 15.619402 4.267904 34.077916 12.466546
2004-06-08 07:25:13 51°12.566 2°33.183 15.637721 4.260733 34.004242 12.466546
2004-06-08 07:26:18 51°12.466 2°32.845 15.675205 4.270118 34.029346 12.432836
2004-06-08 07:27:19 51°12.377 2°32.522 15.637764 4.259784 33.988692 12.432836
2004-06-08 07:28:15 51°12.296 2°32.225 15.652286 4.267904 34.043084 12.365418
2004-06-08 07:29:18 51°12.204 2°31.888 15.579213 4.272966 34.112768 12.331708
2004-06-08 07:30:19 51°12.112 2°31.56 15.526482 4.258414 34.062276 12.297999
2004-06-08 07:31:18 51°12.022 2°31.242 15.523633 4.269804 34.176483 12.264289
2004-06-08 07:32:19 51°11.929 2°30.912 15.522511 4.25852 34.072927 12.23058
2004-06-08 07:33:18 51°11.839 2°30.59 15.485979 4.249557 34.014087 12.163161
2004-06-08 07:34:18 51°11.746 2°30.26 15.462305 4.251666 34.056273 12.23058
2004-06-08 07:35:18 51°11.653 2°29.929 15.450508 4.260103 34.143527 12.196871
2004-06-08 07:36:18 51°11.563 2°29.596 15.380289 4.248925 34.086864 12.028324
2004-06-08 07:37:26 51°11.489 2°29.2 15.174619 4.210542 33.83771 11.826067
2004-06-08 07:38:24 51°11.424 2°28.861 15.051969 4.192723 33.835019 11.488973
2004-06-08 07:39:27 51°11.353 2°28.493 15.010181 4.215502 34.104776 11.387845
2004-06-08 07:40:32 51°11.28 2°28.111 14.98447 4.182285 33.834609 11.387845
2004-06-08 07:41:31 51°11.215 2°27.765 14.984078 4.21392 34.129945 11.320426
2004-06-08 07:42:31 51°11.149 2°27.413 14.990213 4.216662 34.154107 11.354136
2004-06-08 07:43:32 51°11.097 2°27.048 15.047318 4.232691 34.291988 11.354136
2004-06-08 07:44:32 51°11.045 2°26.692 15.111671 4.224359 34.134235 11.320426
2004-06-08 07:45:32 51°10.993 2°26.337 15.104461 4.233849 34.214047 11.455264
2004-06-08 07:46:32 51°10.942 2°25.98 15.103115 4.221617 34.1016 11.590101
2004-06-08 07:47:32 51°10.89 2°25.623 15.090908 4.212232 34.026695 11.623811
2004-06-08 07:48:32 51°10.838 2°25.263 15.08287 4.219192 34.100036 11.623811
2004-06-08 07:49:31 51°10.781 2°24.912 15.07683 4.209279 34.009201 11.623811
2004-06-08 07:50:32 51°10.695 2°24.565 15.081783 4.222355 34.138473 11.69123
2004-06-08 07:51:32 51°10.581 2°24.248 15.113235 4.176485 33.708086 11.556392
2004-06-08 07:52:32 51°10.466 2°23.931 15.142371 4.2329 34.182459 11.590101
2004-06-08 07:53:32 51°10.357 2°23.607 15.163466 4.238278 34.219174 11.590101
2004-06-08 07:54:38 51°10.24 2°23.25 15.148709 4.219401 34.027942 11.623811
2004-06-08 07:55:38 51°10.134 2°22.924 15.149404 4.220562 34.058016 11.69123
2004-06-08 07:56:38 51°10.028 2°22.597 15.142805 4.248085 34.305735 11.758648
2004-06-08 07:57:37 51°9.924 2°22.275 15.15101 4.245027 34.278124 11.758648
2004-06-08 07:58:37 51°9.819 2°21.945 15.142371 4.244921 34.277172 11.792358
2004-06-08 07:59:38 51°9.712 2°21.607 15.147841 4.246081 34.285668 11.826067
2004-06-08 08:00:38 51°9.608 2°21.275 15.139072 4.235642 34.198666 11.792358
2004-06-08 08:01:37 51°9.505 2°20.947 15.136033 4.241969 34.257099 11.792358
2004-06-08 08:02:38 51°9.398 2°20.607 15.137422 4.238278 34.227067 11.792358
2004-06-08 08:03:38 51°9.299 2°20.267 15.117274 4.246082 34.29819 11.859777
2004-06-08 08:04:38 51°9.217 2°19.912 15.103636 4.242813 34.285803 11.859777
2004-06-08 08:05:38 51°9.135 2°19.556 15.081306 4.243446 34.311978 11.792358
2004-06-08 08:06:38 51°9.052 2°19.198 15.047709 4.235537 34.258951 11.724939
2004-06-08 08:07:46 51°9.008 2°18.774 15.021664 4.239545 34.319645 11.590101
2004-06-08 08:08:46 51°9.01 2°18.388 15.035622 4.223832 34.188685 11.455264
2004-06-08 08:09:46 51°9.012 2°18.004 15.007049 4.241021 34.314489 11.320426
2004-06-08 08:10:46 51°9.024 2°17.625 14.925657 4.239229 34.375759 11.219298
2004-06-08 08:11:46 51°9.046 2°17.249 14.850096 4.223412 34.30329 11.219298
2004-06-08 08:12:46 51°9.065 2°16.875 14.773709 4.222886 34.370374 11.253007
2004-06-08 08:13:46 51°9.088 2°16.5 14.754457 4.217404 34.367176 11.320426
2004-06-08 08:14:46 51°9.11 2°16.123 14.738606 4.213291 34.332384 11.286717
2004-06-08 08:15:46 51°9.133 2°15.742 14.73485 4.207702 34.290147 11.286717
2004-06-08 08:16:46 51°9.147 2°15.357 14.735025 4.20939 34.312855 11.354136
2004-06-08 08:17:46 51°9.114 2°14.977 14.743104 4.21192 34.333913 11.286717
2004-06-08 08:18:46 51°9.038 2°14.613 14.732885 4.20707 34.28705 11.253007
2004-06-08 08:19:46 51°8.943 2°14.261 14.726682 4.216455 34.384596 11.286717
2004-06-08 08:20:46 51°8.8 2°13.961 14.758692 4.214135 34.356097 11.320426
2004-06-08 08:21:46 51°8.647 2°13.671 14.717858 4.215822 34.368131 11.387845
2004-06-08 08:22:46 51°8.502 2°13.369 14.723144 4.211182 34.347227 11.387845
2004-06-08 08:23:46 51°8.353 2°13.077 14.759653 4.21656 34.385558 11.455264
2004-06-08 08:24:46 51°8.196 2°12.795 14.795138 4.220988 34.373116 11.387845
2004-06-08 08:25:46 51°8.037 2°12.52 14.857813 4.22489 34.384602 11.387845
2004-06-08 08:26:50 51°7.868 2°12.226 14.972546 4.232692 34.368269 11.387845
2004-06-08 08:27:50 51°7.711 2°11.949 15.079567 4.240494 34.355386 11.320426
2004-06-08 08:28:49 51°7.556 2°11.678 15.204683 4.241969 34.266319 11.253007
2004-06-08 08:29:50 51°7.396 2°11.4 15.339871 4.264745 34.348009 11.219298
2004-06-08 08:30:50 51°7.241 2°11.123 15.360775 4.271599 34.344663 11.286717
2004-06-08 08:31:49 51°7.089 2°10.849 15.372977 4.271072 34.326152 11.421554
2004-06-08 08:32:50 51°6.93 2°10.566 15.38509 4.274657 34.348541 11.623811
2004-06-08 08:33:51 51°6.771 2°10.282 15.393006 4.268751 34.286972 11.724939
2004-06-08 08:34:51 51°6.615 2°10.002 15.447655 4.277609 34.348851 11.826067
2004-06-08 08:35:50 51°6.482 2°9.766 15.468958 4.280456 34.336444 11.859777
2004-06-08 08:36:50 51°6.406 2°9.592 15.460749 4.281511 34.330212 11.859777
2004-06-08 08:37:50 51°6.39 2°9.452 15.490384 4.284463 34.348846 11.859777
2004-06-08 08:38:51 51°6.395 2°9.341 15.493105 4.282987 34.325809 11.927195
2004-06-08 08:39:50 51°6.408 2°9.253 15.486238 4.282459 34.321736 11.927195
2004-06-08 08:40:50 51°6.399 2°9.138 15.471853 4.285307 34.35641 11.960905
2004-06-08 08:41:50 51°6.358 2°9.058 15.45336 4.282882 34.352316 12.028324
2004-06-08 08:42:51 51°6.32 2°8.988 15.452193 4.282143 34.347002 11.960905
2004-06-08 08:43:50 51°6.287 2°8.922 15.438493 4.279507 34.32793 11.960905
2004-06-08 08:44:50 51°6.26 2°8.854 15.429372 4.278664 34.33017 11.960905
2004-06-08 08:45:51 51°6.238 2°8.784 15.427859 4.278875 34.337951 11.960905
2004-06-08 08:46:50 51°6.215 2°8.717 15.426389 4.273074 34.286557 11.994614
2004-06-08 08:47:50 51°6.191 2°8.653 15.425308 4.275711 34.316099 11.994614
2004-06-08 08:48:50 51°6.165 2°8.59 15.426302 4.278769 34.342895 12.028324
2004-06-08 08:49:50 51°6.139 2°8.53 15.425567 4.276766 34.325565 11.994614
2004-06-08 08:50:50 51°6.111 2°8.472 15.415883 4.275606 34.317115 11.994614
2004-06-08 08:51:50 51°6.082 2°8.415 15.409699 4.277082 34.339532 11.960905
2004-06-08 08:52:50 51°6.054 2°8.358 15.409008 4.277609 34.349506 12.028324
2004-06-08 08:53:50 51°6.026 2°8.3 15.407883 4.277188 34.342443 11.960905
2004-06-08 08:54:50 51°5.999 2°8.239 15.392314 4.274129 34.322839 11.994614
2004-06-08 08:55:50 51°5.973 2°8.177 15.381976 4.272653 34.3194 11.994614
2004-06-08 08:56:50 51°5.948 2°8.115 15.385869 4.272231 34.32216 11.994614
2004-06-08 08:57:50 51°5.922 2°8.052 15.387599 4.269595 34.290623 12.028324
2004-06-08 08:58:50 51°5.9 2°7.988 15.387513 4.275817 34.34913 11.994614
2004-06-08 08:59:51 51°5.882 2°7.922 15.38336 4.274762 34.340312 12.028324
2004-06-08 09:00:51 51°5.866 2°7.854 15.375486 4.272231 34.32347 12.062033
2004-06-08 09:01:48 51°5.852 2°7.787 15.368694 4.272126 34.32842 12.062033
2004-06-08 09:02:49 51°5.835 2°7.714 15.368391 4.272864 34.337675 12.062033
2004-06-08 09:03:51 51°5.817 2°7.639 15.371333 4.266537 34.281474 12.028324
2004-06-08 09:04:51 51°5.803 2°7.57 15.3664 4.270966 34.320617 12.028324
2004-06-08 09:05:50 51°5.789 2°7.506 15.360689 4.271493 34.33191 11.960905
2004-06-08 09:06:50 51°5.773 2°7.439 15.357962 4.270544 34.320758 11.994614
2004-06-08 09:07:51 51°5.758 2°7.374 15.336408 4.270966 34.33963 12.095742
2004-06-08 09:08:50 51°5.744 2°7.312 15.332209 4.267276 34.314313 12.028324
2004-06-08 09:09:49 51°5.731 2°7.249 15.322598 4.267065 34.320942 12.028324
2004-06-08 09:10:50 51°5.718 2°7.177 15.314717 4.266643 34.323709 12.062033
2004-06-08 09:11:50 51°5.71 2°7.094 15.309564 4.264007 34.309177 12.129452
2004-06-08 09:12:51 51°5.702 2°7.003 15.2993 4.266432 34.338225 12.095742
2004-06-08 09:13:49 51°5.699 2°6.92 15.287431 4.257891 34.270538 12.095742
2004-06-08 09:14:53 51°5.699 2°6.834 15.27907 4.262425 34.31529 12.095742
2004-06-08 09:15:53 51°5.71 2°6.743 15.272744 4.263164 34.332449 12.062033
2004-06-08 09:16:53 51°5.736 2°6.649 15.264554 4.259684 34.305053 12.095742
2004-06-08 09:17:53 51°5.771 2°6.56 15.245051 4.25536 34.280561 12.095742
2004-06-08 09:18:53 51°5.798 2°6.49 15.233216 4.257153 34.309198 12.095742
2004-06-08 09:19:53 51°5.82 2°6.433 15.25346 4.258629 34.314611 12.028324
2004-06-08 09:20:53 51°5.836 2°6.382 15.260264 4.258418 34.304167 12.028324
2004-06-08 09:21:53 51°5.86 2°6.338 15.264771 4.257575 34.29394 12.028324
2004-06-08 09:22:53 51°5.9 2°6.354 15.290723 4.254938 34.263635 12.163161
2004-06-08 09:23:53 51°5.925 2°6.398 15.293452 4.26232 34.311714 11.927195
2004-06-08 09:24:52 51°5.942 2°6.461 15.267414 4.260211 34.295355 11.927195
2004-06-08 09:25:58 51°5.953 2°6.54 15.247868 4.259473 34.322212 11.960905
2004-06-08 09:26:58 51°5.956 2°6.611 15.210148 4.259579 34.335004 11.927195
2004-06-08 09:27:59 51°5.957 2°6.677 15.200562 4.256204 34.328278 11.960905
2004-06-08 09:28:58 51°5.958 2°6.736 15.185162 4.254517 34.326231 11.960905
2004-06-08 09:29:58 51°5.96 2°6.797 15.19141 4.255256 34.335526 11.927195
2004-06-08 09:30:58 51°5.961 2°6.861 15.184251 4.254306 34.330917 11.960905
2004-06-08 09:31:58 51°5.966 2°6.923 15.192234 4.253568 34.320962 11.859777
2004-06-08 09:32:59 51°5.974 2°6.985 15.202558 4.256732 34.336985 11.792358
2004-06-08 09:33:58 51°5.982 2°7.052 15.206201 4.253252 34.303624 11.792358
2004-06-08 09:34:58 51°5.99 2°7.115 15.223504 4.254411 34.304214 11.792358
2004-06-08 09:35:58 51°5.999 2°7.18 15.245831 4.260106 34.342389 11.792358
2004-06-08 09:36:58 51°6.008 2°7.246 15.25502 4.261898 34.338146 11.724939
2004-06-08 09:37:58 51°6.017 2°7.31 15.276123 4.263269 34.34063 11.69123
2004-06-08 09:38:58 51°6.026 2°7.376 15.296138 4.263691 34.329968 11.724939
2004-06-08 09:39:58 51°6.034 2°7.439 15.319783 4.267698 34.341075 11.724939
2004-06-08 09:40:58 51°6.043 2°7.503 15.33749 4.266643 34.31846 11.724939
2004-06-08 09:41:58 51°6.05 2°7.567 15.353894 4.270756 34.343639 11.826067
2004-06-08 09:43:00 51°6.058 2°7.633 15.388551 4.271177 34.329722 11.859777
2004-06-08 09:43:58 51°6.067 2°7.696 15.401915 4.271071 34.303228 11.792358
2004-06-08 09:44:59 51°6.075 2°7.763 15.426562 4.272969 34.298029 11.859777
2004-06-08 09:45:58 51°6.083 2°7.828 15.438363 4.275711 34.307598 11.859777
2004-06-08 09:46:59 51°6.092 2°7.897 15.449557 4.281195 34.350918 11.927195
2004-06-08 09:47:58 51°6.098 2°7.961 15.451199 4.282249 34.351873 11.859777
2004-06-08 09:49:04 51°6.107 2°8.03 15.452496 4.280351 34.331575 11.859777
2004-06-08 09:50:04 51°6.115 2°8.096 15.461052 4.28014 34.329683 11.927195
2004-06-08 09:51:08 51°6.124 2°8.169 15.465934 4.281827 34.335664 11.826067
2004-06-08 09:52:08 51°6.133 2°8.235 15.464551 4.281405 34.331227 11.859777
2004-06-08 09:53:18 51°6.144 2°8.312 15.471551 4.282249 34.333564 11.826067
2004-06-08 09:54:22 51°6.157 2°8.38 15.465502 4.281089 34.32643 11.826067
2004-06-08 09:55:22 51°6.183 2°8.433 15.472155 4.280667 34.318074 11.826067
2004-06-08 09:56:22 51°6.207 2°8.487 15.466323 4.28151 34.326292 11.792358
2004-06-08 09:57:22 51°6.223 2°8.548 15.460965 4.282565 34.34163 11.792358
2004-06-08 09:58:22 51°6.243 2°8.605 15.464249 4.279296 34.316887 11.826067
2004-06-08 09:59:22 51°6.269 2°8.652 15.475828 4.281827 34.327821 11.758648
2004-06-08 10:00:23 51°6.297 2°8.674 15.474056 4.282354 34.329935 11.758648
2004-06-08 10:01:21 51°6.32 2°8.666 15.480493 4.283831 34.346441 11.758648
2004-06-08 10:02:22 51°6.34 2°8.64 15.483301 4.284147 34.344702 11.65752
2004-06-08 10:03:23 51°6.358 2°8.603 15.477469 4.285201 34.351542 11.69123
2004-06-08 10:04:21 51°6.376 2°8.552 15.480191 4.28267 34.332772 11.792358
2004-06-08 10:05:24 51°6.389 2°8.484 15.50714 4.285939 34.347703 11.859777
2004-06-08 10:06:32 51°6.396 2°8.398 15.523978 4.288048 34.337216 11.792358
2004-06-08 10:07:32 51°6.39 2°8.315 15.501699 4.287416 34.343297 11.859777
2004-06-08 10:08:39 51°6.368 2°8.224 15.487663 4.283409 34.328937 11.893486
2004-06-08 10:09:38 51°6.338 2°8.154 15.446575 4.281405 34.324693 11.859777
2004-06-08 10:10:42 51°6.299 2°8.094 15.422671 4.27898 34.335626 11.893486
2004-06-08 10:11:42 51°6.264 2°8.054 15.421806 4.276976 34.327458 11.893486
2004-06-08 10:12:42 51°6.228 2°8.024 15.421547 4.275184 34.3166 11.960905
2004-06-08 10:13:43 51°6.194 2°8.007 15.425005 4.276976 34.328112 11.960905
2004-06-08 10:14:50 51°6.165 2°8.001 15.437196 4.278664 34.339985 11.994614
2004-06-08 10:15:50 51°6.149 2°8.001 15.447526 4.280773 34.343207 11.927195
2004-06-08 10:16:51 51°6.169 2°8.034 15.459712 4.280878 34.337612 11.927195
2004-06-08 10:17:51 51°6.255 2°8.25 15.464724 4.283409 34.347889 12.028324
2004-06-08 10:18:50 51°6.352 2°8.505 15.420639 4.282038 34.342132 11.927195
2004-06-08 10:19:51 51°6.454 2°8.769 15.321342 4.275712 34.355394 11.893486
2004-06-08 10:20:51 51°6.554 2°9.029 15.212489 4.266538 34.358893 11.724939
2004-06-08 10:21:50 51°6.647 2°9.289 15.108805 4.25399 34.33729 11.724939
2004-06-08 10:22:49 51°6.736 2°9.552 15.049361 4.24914 34.36611 11.65752
2004-06-08 10:23:51 51°6.831 2°9.828 15.038275 4.245977 34.371909 11.421554
2004-06-08 10:24:51 51°6.918 2°10.101 15.043579 4.242919 34.351512 11.354136
2004-06-08 10:25:51 51°6.999 2°10.378 15.053317 4.241759 34.348295 11.320426
2004-06-08 10:26:52 51°7.082 2°10.662 15.073571 4.245766 34.346174 11.219298
2004-06-08 10:27:50 51°7.161 2°10.933 15.076613 4.248402 34.36208 11.219298
2004-06-08 10:28:51 51°7.222 2°11.124 15.065096 4.247981 34.370176 11.219298
2004-06-08 10:29:50 51°7.269 2°11.169 15.159647 4.248824 34.342758 11.151879
2004-06-08 10:30:50 51°7.314 2°11.186 15.161643 4.250826 34.285699 11.08446
2004-06-08 10:31:51 51°7.345 2°11.23 15.076917 4.256205 34.379724 11.185589
2004-06-08 10:32:49 51°7.369 2°11.283 15.016836 4.250195 34.381603 11.185589
2004-06-08 10:33:50 51°7.395 2°11.338 14.978334 4.245977 34.381848 11.253007
2004-06-08 10:34:50 51°7.421 2°11.39 14.955788 4.242709 34.380089 11.253007
2004-06-08 10:35:49 51°7.447 2°11.442 14.94621 4.241338 34.381601 11.185589
2004-06-08 10:36:51 51°7.473 2°11.496 14.924481 4.240073 34.382744 11.185589
2004-06-08 10:37:53 51°7.497 2°11.55 14.918906 4.23807 34.383172 11.219298
2004-06-08 10:38:53 51°7.516 2°11.608 14.893595 4.237753 34.384954 11.185589
2004-06-08 10:39:53 51°7.533 2°11.665 14.890371 4.235855 34.383685 11.185589
2004-06-08 10:40:53 51°7.551 2°11.726 14.884488 4.234906 34.383716 11.151879
2004-06-08 10:41:53 51°7.571 2°11.785 14.87599 4.234379 34.383586 11.151879
2004-06-08 10:42:53 51°7.591 2°11.843 14.877559 4.234063 34.386036 11.151879
2004-06-08 10:43:53 51°7.611 2°11.903 14.88719 4.234168 34.382336 11.151879
2004-06-08 10:44:52 51°7.629 2°11.962 14.885534 4.234695 34.380472 11.185589
2004-06-08 10:45:53 51°7.65 2°12.022 14.885708 4.234274 34.380633 11.151879
2004-06-08 10:46:53 51°7.67 2°12.082 14.899652 4.235012 34.376694 11.151879
2004-06-08 10:47:53 51°7.69 2°12.142 14.899695 4.235855 34.377702 11.151879
2004-06-08 10:48:53 51°7.71 2°12.204 14.905664 4.235644 34.376453 11.185589
2004-06-08 10:49:53 51°7.73 2°12.265 14.913287 4.236382 34.378498 11.185589
2004-06-08 10:50:53 51°7.753 2°12.329 14.912111 4.236804 34.377009 11.185589
2004-06-08 10:51:52 51°7.771 2°12.385 14.911109 4.236699 34.378046 11.185589
2004-06-08 10:52:53 51°7.794 2°12.449 14.908975 4.236172 34.373927 11.185589
2004-06-08 10:53:53 51°7.816 2°12.511 14.919559 4.236277 34.37289 11.151879
2004-06-08 10:54:53 51°7.84 2°12.574 14.919864 4.237015 34.374271 11.185589
2004-06-08 10:55:52 51°7.863 2°12.636 14.920474 4.237015 34.374936 11.185589
2004-06-08 10:56:53 51°7.886 2°12.699 14.926441 4.237226 34.372199 11.219298
2004-06-08 10:57:53 51°7.91 2°12.761 14.93637 4.237648 34.371376 11.219298
2004-06-08 10:58:53 51°7.934 2°12.824 14.939156 4.238491 34.370394 11.253007
2004-06-08 10:59:52 51°7.96 2°12.884 14.960968 4.238702 34.366333 11.253007
2004-06-08 11:00:53 51°7.993 2°12.938 14.977594 4.2406 34.36496 11.253007
2004-06-08 11:01:52 51°8.025 2°12.992 14.992911 4.242498 34.367568 11.354136
2004-06-08 11:02:52 51°8.052 2°13.049 15.001307 4.24313 34.363357 11.320426
2004-06-08 11:03:53 51°8.079 2°13.108 15.00892 4.243657 34.360844 11.354136
2004-06-08 11:04:53 51°8.103 2°13.167 15.012661 4.24429 34.361273 11.354136
2004-06-08 11:05:53 51°8.125 2°13.227 15.002569 4.244079 34.362013 11.354136
2004-06-08 11:06:53 51°8.143 2°13.28 14.998915 4.243552 34.361214 11.354136
2004-06-08 11:08:00 51°8.168 2°13.304 15.001177 4.243341 34.361292 11.421554
2004-06-08 11:09:00 51°8.189 2°13.303 15.002003 4.24313 34.359382 11.421554
2004-06-08 11:10:00 51°8.227 2°13.307 15.003091 4.243341 34.358642 11.354136
2004-06-08 11:10:59 51°8.28 2°13.313 14.988081 4.243025 34.36174 11.421554
2004-06-08 11:12:00 51°8.33 2°13.32 14.973764 4.24197 34.360805 11.387845
2004-06-08 11:13:00 51°8.373 2°13.329 14.969891 4.240811 34.361566 11.320426
2004-06-08 11:14:00 51°8.41 2°13.346 14.967758 4.240811 34.363555 11.320426
2004-06-08 11:15:00 51°8.44 2°13.371 14.969586 4.240073 34.360183 11.387845
2004-06-08 11:16:00 51°8.467 2°13.406 14.974461 4.240283 34.358115 11.354136
2004-06-08 11:17:00 51°8.493 2°13.45 14.97829 4.240283 34.354801 11.320426
2004-06-08 11:18:00 51°8.517 2°13.5 14.983338 4.240916 34.353905 11.387845
2004-06-08 11:19:05 51°8.537 2°13.56 14.991997 4.241127 34.352502 11.421554
2004-06-08 11:20:05 51°8.554 2°13.615 15.002482 4.241759 34.351607 11.387845
2004-06-08 11:21:05 51°8.569 2°13.671 15.015009 4.242497 34.348356 11.421554
2004-06-08 11:22:08 51°8.584 2°13.73 15.024882 4.243025 34.345185 11.488973
2004-06-08 11:23:05 51°8.596 2°13.784 15.038579 4.243868 34.340908 11.488973
2004-06-08 11:24:07 51°8.606 2°13.844 15.051665 4.24545 34.34199 11.556392
2004-06-08 11:25:07 51°8.618 2°13.903 15.063184 4.246188 34.336105 11.590101
2004-06-08 11:26:08 51°8.632 2°13.961 15.077786 4.24682 34.331915 11.522683
2004-06-08 11:27:07 51°8.645 2°14.017 15.091646 4.248191 34.333738 11.623811
2004-06-08 11:28:05 51°8.663 2°14.071 15.102376 4.249456 34.331307 11.65752
2004-06-08 11:29:05 51°8.68 2°14.124 15.11571 4.249983 34.329471 11.623811
2004-06-08 11:30:07 51°8.688 2°14.18 15.123527 4.251354 34.327339 11.65752
2004-06-08 11:31:08 51°8.691 2°14.243 15.132342 4.25146 34.326313 11.69123
2004-06-08 11:32:07 51°8.699 2°14.311 15.139506 4.252619 34.328872 11.65752
2004-06-08 11:33:07 51°8.706 2°14.382 15.145974 4.253147 34.32638 11.69123
2004-06-08 11:34:07 51°8.711 2°14.455 15.156479 4.254306 34.327622 11.65752
2004-06-08 11:35:07 51°8.716 2°14.529 15.150489 4.254306 34.324987 11.65752
2004-06-08 11:36:06 51°8.722 2°14.602 15.13282 4.254306 34.330917 11.69123
2004-06-08 11:37:07 51°8.728 2°14.676 15.101377 4.252514 34.334514 11.623811
2004-06-08 11:38:07 51°8.734 2°14.75 15.07822 4.250089 34.340984 11.69123
2004-06-08 11:39:12 51°8.739 2°14.832 15.036144 4.247664 34.342844 11.724939
2004-06-08 11:40:12 51°8.742 2°14.909 15.000002 4.244606 34.350234 11.69123
2004-06-08 11:41:12 51°8.746 2°14.985 14.973024 4.241865 34.355211 11.65752
2004-06-08 11:42:12 51°8.749 2°15.062 14.953916 4.239862 34.358272 11.590101
2004-06-08 11:43:12 51°8.749 2°15.138 14.934802 4.237753 34.359056 11.623811
2004-06-08 11:44:12 51°8.741 2°15.21 14.925091 4.236804 34.359743 11.590101
2004-06-08 11:45:12 51°8.724 2°15.276 14.924263 4.23596 34.360722 11.590101
2004-06-08 11:46:12 51°8.697 2°15.335 14.92705 4.236171 34.359316 11.488973
2004-06-08 11:47:12 51°8.659 2°15.38 14.933409 4.23575 34.358146 11.556392
2004-06-08 11:48:17 51°8.617 2°15.392 14.980771 4.238175 34.353593 11.590101
2004-06-08 11:49:20 51°8.578 2°15.378 15.064661 4.243868 34.344216 11.556392
2004-06-08 11:50:21 51°8.545 2°15.36 15.078959 4.247664 34.338219 11.590101
2004-06-08 11:51:22 51°8.52 2°15.35 15.097033 4.249245 34.336663 11.69123
2004-06-08 11:52:21 51°8.506 2°15.345 15.111237 4.250194 34.332036 11.758648
2004-06-08 11:53:22 51°8.498 2°15.342 15.132993 4.250932 34.329466 11.758648
2004-06-08 11:54:21 51°8.497 2°15.34 15.140287 4.253252 34.327991 11.792358
2004-06-08 11:55:22 51°8.508 2°15.332 15.140374 4.253041 34.328065 11.893486
2004-06-08 11:56:21 51°8.526 2°15.31 15.182299 4.254306 34.323011 11.859777
2004-06-08 11:57:22 51°8.548 2°15.271 15.179175 4.257153 34.324327 11.826067
2004-06-08 11:58:21 51°8.569 2°15.217 15.176398 4.256626 34.327472 11.859777
2004-06-08 11:59:22 51°8.587 2°15.143 15.17271 4.256626 34.330106 11.826067
2004-06-08 12:00:22 51°8.595 2°15.059 15.143196 4.256943 34.334935 11.792358
2004-06-08 12:01:22 51°8.592 2°14.973 15.092863 4.253041 34.340593 11.792358
2004-06-08 12:02:22 51°8.574 2°14.881 15.064966 4.249246 34.344588 11.826067
2004-06-08 12:03:22 51°8.516 2°14.831 15.046101 4.247664 34.350776 11.826067
2004-06-08 12:04:22 51°8.376 2°14.878 15.084868 4.247031 34.345716 11.792358
2004-06-08 12:05:22 51°8.186 2°14.879 15.160168 4.250194 34.325439 11.859777
2004-06-08 12:06:22 51°7.965 2°14.821 15.131083 4.253779 34.319572 11.859777
2004-06-08 12:07:22 51°7.75 2°14.652 15.093688 4.249561 34.321044 11.927195
2004-06-08 12:08:22 51°7.551 2°14.455 15.079785 4.243024 34.277161 11.893486
2004-06-08 12:09:22 51°7.442 2°14.466 15.100769 4.237856 34.237737 11.859777
2004-06-08 12:10:22 51°7.431 2°14.528 15.10255 4.24798 34.314014 11.893486
2004-06-08 12:11:22 51°7.446 2°14.566 15.116709 4.249034 34.315623 11.960905
2004-06-08 12:12:22 51°7.458 2°14.615 15.12331 4.249667 34.311447 11.960905
2004-06-08 12:13:22 51°7.449 2°14.681 15.122529 4.249983 34.313644 12.028324
2004-06-08 12:14:22 51°7.427 2°14.751 15.125264 4.249983 34.311008 12.028324
2004-06-08 12:15:22 51°7.397 2°14.817 15.137161 4.249983 34.307054 12.062033
2004-06-08 12:16:22 51°7.378 2°14.879 15.152616 4.250721 34.301859 12.163161
2004-06-08 12:17:22 51°7.378 2°14.939 15.176962 4.253146 34.305306 12.129452
2004-06-08 12:18:22 51°7.386 2°14.999 15.192364 4.255571 34.305463 12.062033
2004-06-08 12:19:22 51°7.402 2°15.057 15.190325 4.256099 34.3089 12.095742
2004-06-08 12:20:22 51°7.422 2°15.112 15.19527 4.256204 34.310508 12.095742
2004-06-08 12:21:22 51°7.437 2°15.172 15.203599 4.256942 34.308612 12.095742
2004-06-08 12:22:21 51°7.452 2°15.231 15.20902 4.257153 34.307225 12.028324
2004-06-08 12:23:22 51°7.467 2°15.291 15.221726 4.257997 34.308253 12.028324
2004-06-08 12:24:22 51°7.482 2°15.349 15.24115 4.259789 34.306659 11.994614
2004-06-08 12:25:22 51°7.496 2°15.408 15.249255 4.261476 34.30806 11.994614
2004-06-08 12:26:22 51°7.51 2°15.468 15.268281 4.262425 34.308725 12.062033
2004-06-08 12:27:22 51°7.525 2°15.527 15.283012 4.264112 34.30947 11.994614
2004-06-08 12:28:20 51°7.54 2°15.585 15.28964 4.265483 34.31065 11.994614
2004-06-08 12:29:21 51°7.557 2°15.647 15.29094 4.266221 34.313354 12.028324
2004-06-08 12:30:22 51°7.574 2°15.709 15.303198 4.266854 34.311175 12.028324
2004-06-08 12:31:22 51°7.593 2°15.77 15.31948 4.267486 34.308998 11.994614
2004-06-08 12:32:22 51°7.611 2°15.832 15.330131 4.269806 34.31609 11.994614
2004-06-08 12:33:22 51°7.631 2°15.894 15.341559 4.270439 34.314569 11.960905
2004-06-08 12:34:22 51°7.65 2°15.959 15.333681 4.270861 34.315084 12.028324
2004-06-08 12:35:22 51°7.67 2°16.023 15.342079 4.270755 34.316101 12.062033
2004-06-08 12:36:22 51°7.69 2°16.088 15.352207 4.27181 34.313787 12.028324
2004-06-08 12:37:21 51°7.71 2°16.15 15.365146 4.272969 34.314385 12.095742
2004-06-08 12:38:22 51°7.732 2°16.216 15.372458 4.273391 34.312283 12.095742
2004-06-08 12:39:22 51°7.755 2°16.281 15.380635 4.274024 34.31142 12.095742
2004-06-08 12:40:22 51°7.778 2°16.346 15.384485 4.274867 34.311798 12.095742
2004-06-08 12:41:20 51°7.801 2°16.408 15.38894 4.275289 34.311005 12.129452
2004-06-08 12:42:22 51°7.825 2°16.475 15.388637 4.2755 34.310283 12.163161
2004-06-08 12:43:22 51°7.849 2°16.54 15.38535 4.274973 34.308166 12.196871
2004-06-08 12:44:22 51°7.874 2°16.606 15.386994 4.274762 34.305619 12.196871
2004-06-08 12:45:22 51°7.899 2°16.671 15.388378 4.275078 34.305189 12.196871
2004-06-08 12:46:22 51°7.924 2°16.736 15.390541 4.275078 34.303882 12.163161
2004-06-08 12:47:22 51°7.948 2°16.801 15.38734 4.274235 34.301541 12.163161
2004-06-08 12:48:22 51°7.97 2°16.866 15.377823 4.273707 34.300732 12.196871
2004-06-08 12:49:22 51°7.985 2°16.936 15.361511 4.272864 34.302315 12.163161
2004-06-08 12:50:22 51°7.994 2°17.009 15.349999 4.270755 34.298424 12.163161
2004-06-08 12:51:22 51°7.995 2°17.083 15.334979 4.269173 34.295996 12.163161
2004-06-08 12:52:22 51°7.987 2°17.149 15.320389 4.268541 34.296858 12.163161
2004-06-08 12:53:22 51°7.97 2°17.192 15.31056 4.266853 34.294793 12.163161
2004-06-08 12:54:22 51°7.949 2°17.237 15.307918 4.266326 34.295949 12.129452
2004-06-08 12:55:22 51°8.007 2°17.328 15.313028 4.266326 34.296604 12.163161
2004-06-08 12:56:22 51°8.106 2°17.552 15.278506 4.266642 34.288968 12.163161
2004-06-08 12:57:22 51°8.121 2°17.856 15.20529 4.260105 34.30294 12.062033
2004-06-08 12:58:22 51°8.136 2°18.167 15.19822 4.25652 34.298895 11.960905
2004-06-08 12:59:20 51°8.146 2°18.469 15.206244 4.256626 34.299845 11.927195
2004-06-08 13:00:22 51°8.156 2°18.795 15.239459 4.255255 34.274359 16.208289
2004-06-08 13:01:21 51°8.163 2°19.107 15.264814 4.257996 34.270831 12.432836
2004-06-08 13:02:22 51°8.168 2°19.432 15.305796 4.26021 34.263228 12.297999
2004-06-08 13:03:22 51°8.172 2°19.754 15.336927 4.263479 34.246153 12.331708
2004-06-08 13:04:21 51°8.207 2°19.964 15.39465 4.267907 34.260436 12.297999
2004-06-08 13:05:26 51°8.246 2°20.029 15.396812 4.270543 34.254057 12.264289
2004-06-08 13:06:28 51°8.281 2°20.057 15.399018 4.272125 34.27151 12.331708
2004-06-08 13:07:28 51°8.311 2°20.09 15.413937 4.271703 34.260546 12.264289
2004-06-08 13:08:26 51°8.329 2°20.14 15.405635 4.272441 34.261945 12.297999
2004-06-08 13:09:26 51°8.341 2°20.207 15.40278 4.271914 34.265048 12.365418
2004-06-08 13:10:26 51°8.353 2°20.281 15.414672 4.271914 34.265048 12.331708
2004-06-08 13:11:27 51°8.37 2°20.355 15.421936 4.273179 34.265302 12.365418
2004-06-08 13:12:27 51°8.386 2°20.43 15.432744 4.274656 34.268101 12.331708
2004-06-08 13:13:27 51°8.397 2°20.51 15.426821 4.27455 34.267156 12.331708
2004-06-08 13:14:28 51°8.41 2°20.592 15.451026 4.27455 34.265199 12.399127
2004-06-08 13:15:27 51°8.421 2°20.67 15.461872 4.276132 34.263075 12.365418
2004-06-08 13:16:28 51°8.434 2°20.75 15.474272 4.277713 34.262259 12.399127
2004-06-08 13:17:26 51°8.446 2°20.828 15.492544 4.278452 34.261705 12.399127
2004-06-08 13:18:26 51°8.458 2°20.909 15.503599 4.279928 34.257995 12.432836
2004-06-08 13:19:26 51°8.471 2°20.989 15.528641 4.281826 34.258716 12.432836
2004-06-08 13:20:27 51°8.483 2°21.072 15.532828 4.283197 34.259274 12.432836
2004-06-08 13:21:28 51°8.498 2°21.156 15.538007 4.283618 34.259145 12.466546
2004-06-08 13:22:26 51°8.511 2°21.236 15.564416 4.284251 34.257003 12.466546
2004-06-08 13:23:26 51°8.525 2°21.32 15.577876 4.28636 34.255068 12.466546
2004-06-08 13:24:28 51°8.538 2°21.408 15.58689 4.287941 34.256216 12.466546
2004-06-08 13:25:26 51°8.55 2°21.49 15.608926 4.288996 34.255901 12.432836
2004-06-08 13:26:27 51°8.563 2°21.578 15.621773 4.290894 34.254039 12.466546
2004-06-08 13:27:27 51°8.583 2°21.658 15.649787 4.29237 34.25425 12.466546
2004-06-08 13:28:28 51°8.611 2°21.734 15.655604 4.294795 34.251916 12.500255
2004-06-08 13:29:28 51°8.64 2°21.806 15.663876 4.294373 34.250745 12.466546
2004-06-08 13:30:27 51°8.669 2°21.868 15.677359 4.295533 34.250729 12.533965
2004-06-08 13:31:27 51°8.7 2°21.928 15.671372 4.296482 34.251424 12.533965
2004-06-08 13:32:27 51°8.731 2°21.989 15.672492 4.29585 34.245782 12.567674
2004-06-08 13:33:28 51°8.761 2°22.052 15.660128 4.294901 34.247676 12.567674
2004-06-08 13:34:27 51°8.796 2°22.1 15.677574 4.294479 34.24262 12.533965
2004-06-08 13:35:27 51°8.838 2°22.133 15.687265 4.295744 34.2429 12.533965
2004-06-08 13:36:27 51°8.883 2°22.156 15.662928 4.296166 34.246661 12.500255
2004-06-08 13:37:27 51°8.928 2°22.181 15.62229 4.292686 34.245408 12.500255
2004-06-08 13:38:27 51°8.97 2°22.212 15.590341 4.289207 34.242865 12.500255
2004-06-08 13:39:27 51°9.012 2°22.246 15.583785 4.286781 34.240661 12.533965
2004-06-08 13:40:27 51°9.053 2°22.278 15.584691 4.285727 34.236431 12.500255
2004-06-08 13:41:28 51°9.091 2°22.315 15.573821 4.284989 34.233729 12.533965
2004-06-08 13:42:26 51°9.119 2°22.349 15.562129 4.282985 34.228154 12.533965
2004-06-08 13:43:28 51°9.139 2°22.383 15.548624 4.282036 34.224215 12.533965
2004-06-08 13:44:28 51°9.154 2°22.414 15.55104 4.281614 34.223041 12.533965
2004-06-08 13:45:27 51°9.164 2°22.44 15.550522 4.280982 34.222578 12.601383
2004-06-08 13:46:28 51°9.174 2°22.463 15.552982 4.280771 34.218096 12.601383
2004-06-08 13:47:28 51°9.19 2°22.485 15.541201 4.280665 34.217153 12.76993
2004-06-08 13:48:27 51°9.222 2°22.493 15.535072 4.280665 34.217802 12.736221
2004-06-08 13:49:28 51°9.255 2°22.475 15.569593 4.282036 34.220321 12.601383
2004-06-08 13:50:28 51°9.278 2°22.431 15.60414 4.284672 34.219228 12.567674
2004-06-08 13:51:28 51°9.29 2°22.375 15.611728 4.287941 34.221199 12.500255
2004-06-08 13:52:25 51°9.29 2°22.317 15.610478 4.287308 34.223325 12.466546
2004-06-08 13:53:28 51°9.276 2°22.257 15.673612 4.292053 34.210643 12.399127
2004-06-08 13:54:28 51°9.254 2°22.218 15.6022 4.290683 34.226237 12.466546
2004-06-08 13:55:28 51°9.226 2°22.198 15.417785 4.283407 34.240365 12.533965
2004-06-08 13:56:27 51°9.195 2°22.191 15.452539 4.272968 34.253628 12.500255
2004-06-08 13:57:28 51°9.161 2°22.196 15.383144 4.275183 34.248707 12.500255
2004-06-08 13:58:28 51°9.125 2°22.245 15.50049 4.271492 34.242349 12.500255
2004-06-08 13:59:28 51°9.161 2°22.369 15.573346 4.278978 34.229341 12.533965
2004-06-08 14:00:27 51°9.288 2°22.607 15.554881 4.282563 34.230875 12.567674
2004-06-08 14:01:25 51°9.422 2°22.86 15.552507 4.281614 34.225637 12.668802
2004-06-08 14:02:27 51°9.565 2°23.133 15.580075 4.281825 34.213246 12.736221
2004-06-08 14:03:26 51°9.701 2°23.395 15.592066 4.284672 34.211451 12.837349
2004-06-08 14:04:27 51°9.841 2°23.668 15.620652 4.285621 34.210206 12.80364
2004-06-08 14:05:26 51°9.957 2°23.956 15.668356 4.287414 34.21455 12.837349
2004-06-08 14:06:27 51°10.077 2°24.255 15.73277 4.293529 34.205705 12.736221
2004-06-08 14:07:27 51°10.197 2°24.55 15.749897 4.298591 34.203014 12.702512
2004-06-08 14:08:26 51°10.314 2°24.842 15.743141 4.297642 34.207469 12.601383
2004-06-08 14:09:26 51°10.416 2°25.155 15.731522 4.298063 34.206062 12.567674
2004-06-08 14:10:28 51°10.519 2°25.479 15.672492 4.295111 34.20688 12.533965
2004-06-08 14:11:28 51°10.621 2°25.789 15.597758 4.286464 34.18473 12.567674
2004-06-08 14:12:28 51°10.723 2°26.097 15.608236 4.278239 34.157253 12.635093
2004-06-08 14:13:26 51°10.824 2°26.39 15.702121 4.279082 34.12084 12.76993
2004-06-08 14:14:26 51°10.917 2°26.699 15.855015 4.286041 34.075306 12.871059
2004-06-08 14:15:26 51°11.002 2°27.015 15.943241 4.293316 34.032933 13.005896
2004-06-08 14:16:28 51°11.09 2°27.345 15.977771 4.297217 34.02154 13.107024
2004-06-08 14:17:28 51°11.176 2°27.665 16.118795 4.300485 33.998234 13.208153
2004-06-08 14:18:27 51°11.26 2°27.98 16.264355 4.311978 33.955705 13.309281
2004-06-08 14:19:27 51°11.345 2°28.3 16.398185 4.320835 33.925749 13.511537
2004-06-08 14:20:25 51°11.427 2°28.61 16.430483 4.328427 33.887489 13.680084
2004-06-08 14:21:27 51°11.517 2°28.942 16.3741 4.32326 33.872924 14.084597
2004-06-08 14:22:28 51°11.605 2°29.269 16.424604 4.319674 33.850902 14.387982
2004-06-08 14:23:28 51°11.691 2°29.59 16.460339 4.321255 33.830959 14.48911
2004-06-08 14:24:27 51°11.777 2°29.905 16.542429 4.323469 33.802867 14.522819
2004-06-08 14:25:28 51°11.867 2°30.232 16.584819 4.327476 33.771857 14.623947
2004-06-08 14:26:28 51°11.954 2°30.555 16.603901 4.328319 33.75871 14.859913
2004-06-08 14:27:26 51°12.04 2°30.867 16.621745 4.328003 33.73733 14.826204
2004-06-08 14:28:32 51°12.136 2°31.224 16.588517 4.326526 33.731282 14.893623
2004-06-08 14:29:33 51°12.226 2°31.554 16.587029 4.323362 33.717342 15.02846
2004-06-08 14:30:33 51°12.315 2°31.881 16.637291 4.320515 33.699332 14.961042
2004-06-08 14:31:33 51°12.403 2°32.208 16.68862 4.323467 33.643378 15.197007
2004-06-08 14:32:33 51°12.493 2°32.536 16.728375 4.321041 33.601927 15.365554
2004-06-08 14:33:32 51°12.581 2°32.86 16.743728 4.319247 33.560494 15.500392
2004-06-08 14:34:33 51°12.673 2°33.196 16.750385 4.3164 33.52716 15.466683
2004-06-08 14:35:33 51°12.763 2°33.526 16.785484 4.313236 33.486808 15.567811
2004-06-08 14:36:32 51°12.853 2°33.851 16.911788 4.314711 33.431096 15.534101
2004-06-08 14:37:33 51°12.945 2°34.185 16.872139 4.310281 33.354974 15.399264
2004-06-08 14:38:33 51°13.037 2°34.51 16.907769 4.303848 33.307227 15.298136
2004-06-08 14:39:33 51°13.127 2°34.835 16.929468 4.293513 33.205729 15.02846
2004-06-08 14:40:33 51°13.216 2°35.159 16.758398 4.281596 33.125696 14.758785
2004-06-08 14:41:33 51°13.305 2°35.486 16.621618 4.259136 33.058876 14.758785
2004-06-08 14:42:32 51°13.394 2°35.807 16.594849 4.246377 33.01845 14.826204
2004-06-08 14:43:33 51°13.482 2°36.143 16.564669 4.24121 32.996605 14.927332
2004-06-08 14:44:41 51°13.58 2°36.519 16.575212 4.236043 32.966855 14.994751
2004-06-08 14:45:41 51°13.664 2°36.851 16.758653 4.237519 32.912493 14.961042
2004-06-08 14:46:41 51°13.748 2°37.183 16.744067 4.237306 32.822739 15.264426
2004-06-08 14:47:40 51°13.83 2°37.51 16.669435 4.224442 32.759401 15.466683
2004-06-08 14:48:40 51°13.912 2°37.845 16.608617 4.214003 32.722977 15.668939
2004-06-08 14:49:40 51°13.978 2°38.191 16.613206 4.206622 32.719656 15.871195
2004-06-08 14:50:40 51°14.041 2°38.538 16.693416 4.212632 32.688885 15.904905
2004-06-08 14:51:41 51°14.107 2°38.892 16.68722 4.216428 32.697192 16.140871
2004-06-08 14:52:41 51°14.171 2°39.243 16.707249 4.21337 32.708483 16.275708
2004-06-08 14:53:41 51°14.237 2°39.592 16.831113 4.217903 32.650144 16.343127
2004-06-08 14:54:41 51°14.305 2°39.942 16.854529 4.225178 32.649169 16.444255
2004-06-08 14:55:41 51°14.353 2°40.301 16.93302 4.230766 32.64975 16.444255
2004-06-08 14:56:40 51°14.354 2°40.666 16.901888 4.231399 32.671868 16.646512
2004-06-08 14:57:40 51°14.354 2°41.039 16.816288 4.229923 32.6639 16.815059
2004-06-08 14:58:41 51°14.351 2°41.42 16.83052 4.219168 32.622902 17.152153
2004-06-08 14:59:41 51°14.347 2°41.794 16.764291 4.212313 32.564321 17.3207
2004-06-08 15:00:41 51°14.352 2°42.165 16.934923 4.200398 32.516123 17.624084
2004-06-08 15:01:41 51°14.386 2°42.531 17.27711 4.220851 32.417372 16.781349
2004-06-08 15:02:41 51°14.418 2°42.896 17.275469 4.22918 32.36515 16.815059
2004-06-08 15:03:40 51°14.448 2°43.256 17.423723 4.23171 32.332557 16.71393
2004-06-08 15:04:40 51°14.476 2°43.621 17.60404 4.256805 32.400458 16.309418
2004-06-08 15:05:42 51°14.507 2°44.002 17.85507 4.276839 32.422299 16.107161
2004-06-08 15:06:50 51°14.543 2°44.421 17.573922 4.28675 32.405297 15.702648
2004-06-08 15:07:50 51°14.573 2°44.791 17.344529 4.246788 32.374443 15.702648
2004-06-08 15:08:50 51°14.606 2°45.163 17.177229 4.255014 32.473616 15.466683
2004-06-08 15:09:54 51°14.641 2°45.562 16.893299 4.217372 32.43278 15.534101
2004-06-08 15:10:58 51°14.676 2°45.961 16.906034 4.213261 32.499524 15.736358
2004-06-08 15:11:58 51°14.709 2°46.337 16.952555 4.208832 32.459608 15.60152
2004-06-08 15:12:57 51°14.744 2°46.706 17.592438 4.215789 32.369865 15.534101
2004-06-08 15:13:58 51°14.755 2°47.09 17.651013 4.268825 32.403496 16.039742
2004-06-08 15:14:58 51°14.76 2°47.468 17.750296 4.277155 32.40882 16.17458
2004-06-08 15:15:58 51°14.767 2°47.846 17.72994 4.268718 32.313853 15.904905
2004-06-08 15:16:58 51°14.775 2°48.22 18.322799 4.272724 32.25771 16.140871
2004-06-08 15:17:58 51°14.784 2°48.592 17.92843 4.273669 32.017392 16.848768
2004-06-08 15:18:58 51°14.794 2°48.965 17.764837 4.24636 32.047455 16.983606
2004-06-08 15:19:58 51°14.812 2°49.338 17.652436 4.235079 32.05984 17.084734
2004-06-08 15:20:58 51°14.83 2°49.71 17.564034 4.2258 32.044741 17.051024
2004-06-08 15:21:58 51°14.85 2°50.083 17.527316 4.20935 31.931158 17.253281
2004-06-08 15:22:58 51°14.869 2°50.457 17.435479 4.204606 31.960617 17.489247
2004-06-08 15:23:57 51°14.888 2°50.827 17.412176 4.189739 31.88188 17.657794
2004-06-08 15:24:59 51°14.908 2°51.216 17.448031 4.183834 31.833451 17.758922
2004-06-08 15:25:58 51°14.926 2°51.586 17.521782 4.181935 31.771195 17.725212
2004-06-08 15:26:58 51°14.945 2°51.963 17.529496 4.176346 31.691489 17.994888
2004-06-08 15:27:58 51°14.964 2°52.339 17.625395 4.167593 31.576759 18.096016
2004-06-08 15:29:02 51°14.978 2°52.74 17.784681 4.163058 31.494592 17.994888
2004-06-08 15:30:09 51°14.935 2°53.151 18.034683 4.182246 31.456607 17.388118
2004-06-08 15:31:09 51°14.895 2°53.52 17.93264 4.188466 31.4227 17.185862
2004-06-08 15:32:09 51°14.819 2°53.869 17.732699 4.173916 31.415609 17.28699
2004-06-08 15:33:09 51°14.713 2°54.193 18.174966 4.176024 31.366136 17.489247